Aviation Digital Data Service (ADDS)

Output produced by METARs form (0817 UTC 18 September 2021)
found at http://www.aviationweather.gov/metar/data/
 
METAR text: UTDK 180800Z 19003MPS 150V230 9999 NSC 35/00 Q1011 R01/09//70 RMK QFE701/0934
Conditions at: UTDK (KOLUB , TJ) observed 0800 UTC 18 September 2021
Temperature: 35.0°C (95°F)
Dewpoint: 0.0°C (32°F) [RH = 11%]
Pressure (altimeter): 29.85 inches Hg (1011.0 mb)
Winds: from the S (190 degrees) at 7 MPH (6 knots; 3.1 m/s)
Visibility: 6 or more miles (10+ km)
Ceiling: at least 12,000 feet AGL
Clouds: sky clear below 12,000 feet AGL
Weather: no significant weather observed at this time

METAR text: UTDK 180730Z 20003MPS 170V240 9999 NSC 35/01 Q1011 R01/09//70 RMK QFE701/0935
Conditions at: UTDK (KOLUB , TJ) observed 0730 UTC 18 September 2021
Temperature: 35.0°C (95°F)
Dewpoint: 1.0°C (34°F) [RH = 12%]
Pressure (altimeter): 29.85 inches Hg (1011.0 mb)
Winds: from the SSW (200 degrees) at 7 MPH (6 knots; 3.1 m/s)
Visibility: 6 or more miles (10+ km)
Ceiling: at least 12,000 feet AGL
Clouds: sky clear below 12,000 feet AGL
Weather: no significant weather observed at this time

METAR text: UTDK 180700Z 21003MPS 160V270 9999 NSC 34/01 Q1011 R01/09//70 RMK QFE701/0935
Conditions at: UTDK (KOLUB , TJ) observed 0700 UTC 18 September 2021
Temperature: 34.0°C (93°F)
Dewpoint: 1.0°C (34°F) [RH = 12%]
Pressure (altimeter): 29.85 inches Hg (1011.0 mb)
Winds: from the SSW (210 degrees) at 7 MPH (6 knots; 3.1 m/s)
Visibility: 6 or more miles (10+ km)
Ceiling: at least 12,000 feet AGL
Clouds: sky clear below 12,000 feet AGL
Weather: no significant weather observed at this time

METAR text: UTDK 180630Z VRB02MPS 9999 NSC 33/03 Q1012 R01/09//70 RMK QFE701/0935
Conditions at: UTDK (KOLUB , TJ) observed 0630 UTC 18 September 2021
Temperature: 33.0°C (91°F)
Dewpoint: 3.0°C (37°F) [RH = 15%]
Pressure (altimeter): 29.88 inches Hg (1012.0 mb)
Winds: variable direction winds at 5 MPH (4 knots; 2.1 m/s)
Visibility: 6 or more miles (10+ km)
Ceiling: at least 12,000 feet AGL
Clouds: sky clear below 12,000 feet AGL
Weather: no significant weather observed at this time

METAR text: UTDK 180600Z 20003MPS 140V240 9999 NSC 32/02 Q1012 R01/09//70 RMK QFE702/0936
Conditions at: UTDK (KOLUB , TJ) observed 0600 UTC 18 September 2021
Temperature: 32.0°C (90°F)
Dewpoint: 2.0°C (36°F) [RH = 15%]
Pressure (altimeter): 29.88 inches Hg (1012.0 mb)
Winds: from the SSW (200 degrees) at 7 MPH (6 knots; 3.1 m/s)
Visibility: 6 or more miles (10+ km)
Ceiling: at least 12,000 feet AGL
Clouds: sky clear below 12,000 feet AGL
Weather: no significant weather observed at this time

METAR text: UTDK 180530Z VRB02MPS 9999 NSC 31/02 Q1012 R01/09//70 RMK QFE702/0936
Conditions at: UTDK (KOLUB , TJ) observed 0530 UTC 18 September 2021
Temperature: 31.0°C (88°F)
Dewpoint: 2.0°C (36°F) [RH = 16%]
Pressure (altimeter): 29.88 inches Hg (1012.0 mb)
Winds: variable direction winds at 5 MPH (4 knots; 2.1 m/s)
Visibility: 6 or more miles (10+ km)
Ceiling: at least 12,000 feet AGL
Clouds: sky clear below 12,000 feet AGL
Weather: no significant weather observed at this time

METAR text: UTDK 180500Z VRB02MPS 9999 NSC 31/01 Q1013 R01/09//70 RMK QFE702/0936
Conditions at: UTDK (KOLUB , TJ) observed 0500 UTC 18 September 2021
Temperature: 31.0°C (88°F)
Dewpoint: 1.0°C (34°F) [RH = 15%]
Pressure (altimeter): 29.91 inches Hg (1013.0 mb)
Winds: variable direction winds at 5 MPH (4 knots; 2.1 m/s)
Visibility: 6 or more miles (10+ km)
Ceiling: at least 12,000 feet AGL
Clouds: sky clear below 12,000 feet AGL
Weather: no significant weather observed at this time

METAR text: UTDK 180430Z VRB02MPS 9999 NSC 30/03 Q1012 R01/09//70 RMK QFE702/0936
Conditions at: UTDK (KOLUB , TJ) observed 0430 UTC 18 September 2021
Temperature: 30.0°C (86°F)
Dewpoint: 3.0°C (37°F) [RH = 18%]
Pressure (altimeter): 29.88 inches Hg (1012.0 mb)
Winds: variable direction winds at 5 MPH (4 knots; 2.1 m/s)
Visibility: 6 or more miles (10+ km)
Ceiling: at least 12,000 feet AGL
Clouds: sky clear below 12,000 feet AGL
Weather: no significant weather observed at this time

METAR text: UTDK 180400Z VRB02MPS 9999 NSC 28/03 Q1012 R01/09//70 RMK QFE702/0936
Conditions at: UTDK (KOLUB , TJ) observed 0400 UTC 18 September 2021
Temperature: 28.0°C (82°F)
Dewpoint: 3.0°C (37°F) [RH = 20%]
Pressure (altimeter): 29.88 inches Hg (1012.0 mb)
Winds: variable direction winds at 5 MPH (4 knots; 2.1 m/s)
Visibility: 6 or more miles (10+ km)
Ceiling: at least 12,000 feet AGL
Clouds: sky clear below 12,000 feet AGL
Weather: no significant weather observed at this time

METAR text: UTDK 180330Z 04003MPS 020V080 9999 NSC 27/04 Q1012 R01/09//70 RMK QFE702/0936
Conditions at: UTDK (KOLUB , TJ) observed 0330 UTC 18 September 2021
Temperature: 27.0°C (81°F)
Dewpoint: 4.0°C (39°F) [RH = 23%]
Pressure (altimeter): 29.88 inches Hg (1012.0 mb)
Winds: from the NE (40 degrees) at 7 MPH (6 knots; 3.1 m/s)
Visibility: 6 or more miles (10+ km)
Ceiling: at least 12,000 feet AGL
Clouds: sky clear below 12,000 feet AGL
Weather: no significant weather observed at this time

METAR text: UTDK 180300Z 03003MPS 9999 NSC 25/02 Q1012 R01/09//70 RMK QFE702/0936
Conditions at: UTDK (KOLUB , TJ) observed 0300 UTC 18 September 2021
Temperature: 25.0°C (77°F)
Dewpoint: 2.0°C (36°F) [RH = 22%]
Pressure (altimeter): 29.88 inches Hg (1012.0 mb)
Winds: from the NNE (30 degrees) at 7 MPH (6 knots; 3.1 m/s)
Visibility: 6 or more miles (10+ km)
Ceiling: at least 12,000 feet AGL
Clouds: sky clear below 12,000 feet AGL
Weather: no significant weather observed at this time

METAR text: UTDK 180230Z 03004MPS 9999 NSC 23/02 Q1012 R01/09//70 RMK QFE701/0935
Conditions at: UTDK (KOLUB , TJ) observed 0230 UTC 18 September 2021
Temperature: 23.0°C (73°F)
Dewpoint: 2.0°C (36°F) [RH = 25%]
Pressure (altimeter): 29.88 inches Hg (1012.0 mb)
Winds: from the NNE (30 degrees) at 9 MPH (8 knots; 4.1 m/s)
Visibility: 6 or more miles (10+ km)
Ceiling: at least 12,000 feet AGL
Clouds: sky clear below 12,000 feet AGL
Weather: no significant weather observed at this time

METAR text: UTDK 180200Z 03005MPS 9999 NSC 21/01 Q1011 R01/09//70 RMK QFE701/0935
Conditions at: UTDK (KOLUB , TJ) observed 0200 UTC 18 September 2021
Temperature: 21.0°C (70°F)
Dewpoint: 1.0°C (34°F) [RH = 26%]
Pressure (altimeter): 29.85 inches Hg (1011.0 mb)
Winds: from the NNE (30 degrees) at 12 MPH (10 knots; 5.1 m/s)
Visibility: 6 or more miles (10+ km)
Ceiling: at least 12,000 feet AGL
Clouds: sky clear below 12,000 feet AGL
Weather: no significant weather observed at this time

METAR text: UTDK 180130Z 02006MPS 9999 NSC 21/00 Q1011 R01/09//70 RMK QFE701/0935
Conditions at: UTDK (KOLUB , TJ) observed 0130 UTC 18 September 2021
Temperature: 21.0°C (70°F)
Dewpoint: 0.0°C (32°F) [RH = 25%]
Pressure (altimeter): 29.85 inches Hg (1011.0 mb)
Winds: from the NNE (20 degrees) at 14 MPH (12 knots; 6.2 m/s)
Visibility: 6 or more miles (10+ km)
Ceiling: at least 12,000 feet AGL
Clouds: sky clear below 12,000 feet AGL
Weather: no significant weather observed at this time

METAR text: UTDK 180100Z 02006MPS 9999 NSC 21/00 Q1011 R01/09//70 RMK QFE701/0934
Conditions at: UTDK (KOLUB , TJ) observed 0100 UTC 18 September 2021
Temperature: 21.0°C (70°F)
Dewpoint: 0.0°C (32°F) [RH = 25%]
Pressure (altimeter): 29.85 inches Hg (1011.0 mb)
Winds: from the NNE (20 degrees) at 14 MPH (12 knots; 6.2 m/s)
Visibility: 6 or more miles (10+ km)
Ceiling: at least 12,000 feet AGL
Clouds: sky clear below 12,000 feet AGL
Weather: no significant weather observed at this time

METAR text: UTDK 180030Z 02006MPS 9999 NSC 22/00 Q1010 R01/09//70 RMK QFE701/0934
Conditions at: UTDK (KOLUB , TJ) observed 0030 UTC 18 September 2021
Temperature: 22.0°C (72°F)
Dewpoint: 0.0°C (32°F) [RH = 23%]
Pressure (altimeter): 29.82 inches Hg (1010.0 mb)
Winds: from the NNE (20 degrees) at 14 MPH (12 knots; 6.2 m/s)
Visibility: 6 or more miles (10+ km)
Ceiling: at least 12,000 feet AGL
Clouds: sky clear below 12,000 feet AGL
Weather: no significant weather observed at this time

METAR text: UTDK 180000Z 02007MPS 9999 NSC 22/00 Q1010 R01/09//70 RMK QFE700/0934
Conditions at: UTDK (KOLUB , TJ) observed 0000 UTC 18 September 2021
Temperature: 22.0°C (72°F)
Dewpoint: 0.0°C (32°F) [RH = 23%]
Pressure (altimeter): 29.82 inches Hg (1010.0 mb)
Winds: from the NNE (20 degrees) at 16 MPH (14 knots; 7.2 m/s)
Visibility: 6 or more miles (10+ km)
Ceiling: at least 12,000 feet AGL
Clouds: sky clear below 12,000 feet AGL
Weather: no significant weather observed at this time

METAR text: UTDK 172330Z 02006MPS 9999 NSC 22/00 Q1010 R01/09//70 RMK QFE700/0934
Conditions at: UTDK (KOLUB , TJ) observed 2330 UTC 17 September 2021
Temperature: 22.0°C (72°F)
Dewpoint: 0.0°C (32°F) [RH = 23%]
Pressure (altimeter): 29.82 inches Hg (1010.0 mb)
Winds: from the NNE (20 degrees) at 14 MPH (12 knots; 6.2 m/s)
Visibility: 6 or more miles (10+ km)
Ceiling: at least 12,000 feet AGL
Clouds: sky clear below 12,000 feet AGL
Weather: no significant weather observed at this time

METAR text: UTDK 172300Z 02006MPS 9999 NSC 22/01 Q1010 R01/09//70 RMK QFE700/0934
Conditions at: UTDK (KOLUB , TJ) observed 2300 UTC 17 September 2021
Temperature: 22.0°C (72°F)
Dewpoint: 1.0°C (34°F) [RH = 25%]
Pressure (altimeter): 29.82 inches Hg (1010.0 mb)
Winds: from the NNE (20 degrees) at 14 MPH (12 knots; 6.2 m/s)
Visibility: 6 or more miles (10+ km)
Ceiling: at least 12,000 feet AGL
Clouds: sky clear below 12,000 feet AGL
Weather: no significant weather observed at this time

METAR text: UTDK 172230Z 02006MPS 9999 NSC 22/00 Q1010 R01/09//70 RMK QFE700/0934
Conditions at: UTDK (KOLUB , TJ) observed 2230 UTC 17 September 2021
Temperature: 22.0°C (72°F)
Dewpoint: 0.0°C (32°F) [RH = 23%]
Pressure (altimeter): 29.82 inches Hg (1010.0 mb)
Winds: from the NNE (20 degrees) at 14 MPH (12 knots; 6.2 m/s)
Visibility: 6 or more miles (10+ km)
Ceiling: at least 12,000 feet AGL
Clouds: sky clear below 12,000 feet AGL
Weather: no significant weather observed at this time

METAR text: UTDK 172200Z 02006MPS 9999 NSC 22/00 Q1010 R01/09//70 RMK QFE700/0933
Conditions at: UTDK (KOLUB , TJ) observed 2200 UTC 17 September 2021
Temperature: 22.0°C (72°F)
Dewpoint: 0.0°C (32°F) [RH = 23%]
Pressure (altimeter): 29.82 inches Hg (1010.0 mb)
Winds: from the NNE (20 degrees) at 14 MPH (12 knots; 6.2 m/s)
Visibility: 6 or more miles (10+ km)
Ceiling: at least 12,000 feet AGL
Clouds: sky clear below 12,000 feet AGL
Weather: no significant weather observed at this time

METAR text: UTDK 172130Z 02007MPS 9999 NSC 23/01 Q1009 R01/09//70 RMK QFE700/0933
Conditions at: UTDK (KOLUB , TJ) observed 2130 UTC 17 September 2021
Temperature: 23.0°C (73°F)
Dewpoint: 1.0°C (34°F) [RH = 23%]
Pressure (altimeter): 29.79 inches Hg (1009.0 mb)
Winds: from the NNE (20 degrees) at 16 MPH (14 knots; 7.2 m/s)
Visibility: 6 or more miles (10+ km)
Ceiling: at least 12,000 feet AGL
Clouds: sky clear below 12,000 feet AGL
Weather: no significant weather observed at this time

METAR text: UTDK 172100Z 02007MPS 9999 NSC 23/00 Q1009 R01/09//70 RMK QFE700/0933
Conditions at: UTDK (KOLUB , TJ) observed 2100 UTC 17 September 2021
Temperature: 23.0°C (73°F)
Dewpoint: 0.0°C (32°F) [RH = 22%]
Pressure (altimeter): 29.79 inches Hg (1009.0 mb)
Winds: from the NNE (20 degrees) at 16 MPH (14 knots; 7.2 m/s)
Visibility: 6 or more miles (10+ km)
Ceiling: at least 12,000 feet AGL
Clouds: sky clear below 12,000 feet AGL
Weather: no significant weather observed at this time

METAR text: UTDK 172030Z 02006MPS 9999 NSC 23/01 Q1009 R01/09//70 RMK QFE700/0933
Conditions at: UTDK (KOLUB , TJ) observed 2030 UTC 17 September 2021
Temperature: 23.0°C (73°F)
Dewpoint: 1.0°C (34°F) [RH = 23%]
Pressure (altimeter): 29.79 inches Hg (1009.0 mb)
Winds: from the NNE (20 degrees) at 14 MPH (12 knots; 6.2 m/s)
Visibility: 6 or more miles (10+ km)
Ceiling: at least 12,000 feet AGL
Clouds: sky clear below 12,000 feet AGL
Weather: no significant weather observed at this time

METAR text: UTDK 172000Z 02007MPS 9999 NSC 24/01 Q1009 R01/09//70 RMK QFE700/0933
Conditions at: UTDK (KOLUB , TJ) observed 2000 UTC 17 September 2021
Temperature: 24.0°C (75°F)
Dewpoint: 1.0°C (34°F) [RH = 22%]
Pressure (altimeter): 29.79 inches Hg (1009.0 mb)
Winds: from the NNE (20 degrees) at 16 MPH (14 knots; 7.2 m/s)
Visibility: 6 or more miles (10+ km)
Ceiling: at least 12,000 feet AGL
Clouds: sky clear below 12,000 feet AGL
Weather: no significant weather observed at this time

METAR text: UTDK 171930Z 02006MPS 9999 NSC 22/03 Q1009 R01/09//70 RMK QFE699/0933
Conditions at: UTDK (KOLUB , TJ) observed 1930 UTC 17 September 2021
Temperature: 22.0°C (72°F)
Dewpoint: 3.0°C (37°F) [RH = 29%]
Pressure (altimeter): 29.79 inches Hg (1009.0 mb)
Winds: from the NNE (20 degrees) at 14 MPH (12 knots; 6.2 m/s)
Visibility: 6 or more miles (10+ km)
Ceiling: at least 12,000 feet AGL
Clouds: sky clear below 12,000 feet AGL
Weather: no significant weather observed at this time

METAR text: UTDK 171900Z 02007MPS 9999 NSC 24/01 Q1009 R01/09//70 RMK QFE699/0933
Conditions at: UTDK (KOLUB , TJ) observed 1900 UTC 17 September 2021
Temperature: 24.0°C (75°F)
Dewpoint: 1.0°C (34°F) [RH = 22%]
Pressure (altimeter): 29.79 inches Hg (1009.0 mb)
Winds: from the NNE (20 degrees) at 16 MPH (14 knots; 7.2 m/s)
Visibility: 6 or more miles (10+ km)
Ceiling: at least 12,000 feet AGL
Clouds: sky clear below 12,000 feet AGL
Weather: no significant weather observed at this time

METAR text: UTDK 171830Z 02006MPS 9999 NSC 23/03 Q1009 R01/09//70 RMK QFE699/0933
Conditions at: UTDK (KOLUB , TJ) observed 1830 UTC 17 September 2021
Temperature: 23.0°C (73°F)
Dewpoint: 3.0°C (37°F) [RH = 27%]
Pressure (altimeter): 29.79 inches Hg (1009.0 mb)
Winds: from the NNE (20 degrees) at 14 MPH (12 knots; 6.2 m/s)
Visibility: 6 or more miles (10+ km)
Ceiling: at least 12,000 feet AGL
Clouds: sky clear below 12,000 feet AGL
Weather: no significant weather observed at this time

METAR text: UTDK 171800Z 02006MPS 9999 NSC 24/02 Q1009 R01/09//70 RMK QFE699/0933
Conditions at: UTDK (KOLUB , TJ) observed 1800 UTC 17 September 2021
Temperature: 24.0°C (75°F)
Dewpoint: 2.0°C (36°F) [RH = 24%]
Pressure (altimeter): 29.79 inches Hg (1009.0 mb)
Winds: from the NNE (20 degrees) at 14 MPH (12 knots; 6.2 m/s)
Visibility: 6 or more miles (10+ km)
Ceiling: at least 12,000 feet AGL
Clouds: sky clear below 12,000 feet AGL
Weather: no significant weather observed at this time

METAR text: UTDK 171730Z 02006MPS 9999 NSC 24/03 Q1009 R01/09//70 RMK QFE699/0932
Conditions at: UTDK (KOLUB , TJ) observed 1730 UTC 17 September 2021
Temperature: 24.0°C (75°F)
Dewpoint: 3.0°C (37°F) [RH = 25%]
Pressure (altimeter): 29.79 inches Hg (1009.0 mb)
Winds: from the NNE (20 degrees) at 14 MPH (12 knots; 6.2 m/s)
Visibility: 6 or more miles (10+ km)
Ceiling: at least 12,000 feet AGL
Clouds: sky clear below 12,000 feet AGL
Weather: no significant weather observed at this time

METAR text: UTDK 171700Z 02006MPS 9999 NSC 24/03 Q1008 R01/09//70 RMK QFE699/0932
Conditions at: UTDK (KOLUB , TJ) observed 1700 UTC 17 September 2021
Temperature: 24.0°C (75°F)
Dewpoint: 3.0°C (37°F) [RH = 25%]
Pressure (altimeter): 29.76 inches Hg (1008.0 mb)
Winds: from the NNE (20 degrees) at 14 MPH (12 knots; 6.2 m/s)
Visibility: 6 or more miles (10+ km)
Ceiling: at least 12,000 feet AGL
Clouds: sky clear below 12,000 feet AGL
Weather: no significant weather observed at this time

METAR text: UTDK 171630Z 02005MPS 9999 NSC 26/03 Q1008 R01/09//70 RMK QFE699/0932
Conditions at: UTDK (KOLUB , TJ) observed 1630 UTC 17 September 2021
Temperature: 26.0°C (79°F)
Dewpoint: 3.0°C (37°F) [RH = 23%]
Pressure (altimeter): 29.76 inches Hg (1008.0 mb)
Winds: from the NNE (20 degrees) at 12 MPH (10 knots; 5.1 m/s)
Visibility: 6 or more miles (10+ km)
Ceiling: at least 12,000 feet AGL
Clouds: sky clear below 12,000 feet AGL
Weather: no significant weather observed at this time

METAR text: UTDK 171600Z 02005MPS 9999 NSC 25/02 Q1008 R01/09//70 RMK QFE699/0932
Conditions at: UTDK (KOLUB , TJ) observed 1600 UTC 17 September 2021
Temperature: 25.0°C (77°F)
Dewpoint: 2.0°C (36°F) [RH = 22%]
Pressure (altimeter): 29.76 inches Hg (1008.0 mb)
Winds: from the NNE (20 degrees) at 12 MPH (10 knots; 5.1 m/s)
Visibility: 6 or more miles (10+ km)
Ceiling: at least 12,000 feet AGL
Clouds: sky clear below 12,000 feet AGL
Weather: no significant weather observed at this time

METAR text: UTDK 171530Z 02004MPS 9999 NSC 26/02 Q1008 R01/09//70 RMK QFE699/0932
Conditions at: UTDK (KOLUB , TJ) observed 1530 UTC 17 September 2021
Temperature: 26.0°C (79°F)
Dewpoint: 2.0°C (36°F) [RH = 21%]
Pressure (altimeter): 29.76 inches Hg (1008.0 mb)
Winds: from the NNE (20 degrees) at 9 MPH (8 knots; 4.1 m/s)
Visibility: 6 or more miles (10+ km)
Ceiling: at least 12,000 feet AGL
Clouds: sky clear below 12,000 feet AGL
Weather: no significant weather observed at this time

METAR text: UTDK 171500Z 03003MPS 9999 NSC 26/05 Q1007 R01/09//70 RMK QFE698/0931
Conditions at: UTDK (KOLUB , TJ) observed 1500 UTC 17 September 2021
Temperature: 26.0°C (79°F)
Dewpoint: 5.0°C (41°F) [RH = 26%]
Pressure (altimeter): 29.73 inches Hg (1007.0 mb)
Winds: from the NNE (30 degrees) at 7 MPH (6 knots; 3.1 m/s)
Visibility: 6 or more miles (10+ km)
Ceiling: at least 12,000 feet AGL
Clouds: sky clear below 12,000 feet AGL
Weather: no significant weather observed at this time

METAR text: UTDK 171430Z 11002MPS 9999 NSC 26/06 Q1007 R01/09//70 RMK QFE698/0931
Conditions at: UTDK (KOLUB , TJ) observed 1430 UTC 17 September 2021
Temperature: 26.0°C (79°F)
Dewpoint: 6.0°C (43°F) [RH = 28%]
Pressure (altimeter): 29.73 inches Hg (1007.0 mb)
Winds: from the ESE (110 degrees) at 5 MPH (4 knots; 2.1 m/s)
Visibility: 6 or more miles (10+ km)
Ceiling: at least 12,000 feet AGL
Clouds: sky clear below 12,000 feet AGL
Weather: no significant weather observed at this time

METAR text: UTDK 171400Z 14002MPS 9999 NSC 28/03 Q1006 R01/09//70 RMK QFE698/0930
Conditions at: UTDK (KOLUB , TJ) observed 1400 UTC 17 September 2021
Temperature: 28.0°C (82°F)
Dewpoint: 3.0°C (37°F) [RH = 20%]
Pressure (altimeter): 29.70 inches Hg (1006.0 mb)
Winds: from the SE (140 degrees) at 5 MPH (4 knots; 2.1 m/s)
Visibility: 6 or more miles (10+ km)
Ceiling: at least 12,000 feet AGL
Clouds: sky clear below 12,000 feet AGL
Weather: no significant weather observed at this time

METAR text: UTDK 171330Z 18002MPS 9999 NSC 30/01 Q1006 R01/09//70 RMK QFE697/0930
Conditions at: UTDK (KOLUB , TJ) observed 1330 UTC 17 September 2021
Temperature: 30.0°C (86°F)
Dewpoint: 1.0°C (34°F) [RH = 15%]
Pressure (altimeter): 29.70 inches Hg (1006.0 mb)
Winds: from the S (180 degrees) at 5 MPH (4 knots; 2.1 m/s)
Visibility: 6 or more miles (10+ km)
Ceiling: at least 12,000 feet AGL
Clouds: sky clear below 12,000 feet AGL
Weather: no significant weather observed at this time

METAR text: UTDK 171300Z 19002MPS 9999 NSC 32/04 Q1006 R01/09//70 RMK QFE697/0930
Conditions at: UTDK (KOLUB , TJ) observed 1300 UTC 17 September 2021
Temperature: 32.0°C (90°F)
Dewpoint: 4.0°C (39°F) [RH = 17%]
Pressure (altimeter): 29.70 inches Hg (1006.0 mb)
Winds: from the S (190 degrees) at 5 MPH (4 knots; 2.1 m/s)
Visibility: 6 or more miles (10+ km)
Ceiling: at least 12,000 feet AGL
Clouds: sky clear below 12,000 feet AGL
Weather: no significant weather observed at this time

METAR text: UTDK 171230Z 19003MPS 9999 NSC 34/03 Q1006 R01/09//70 RMK QFE697/0930
Conditions at: UTDK (KOLUB , TJ) observed 1230 UTC 17 September 2021
Temperature: 34.0°C (93°F)
Dewpoint: 3.0°C (37°F) [RH = 14%]
Pressure (altimeter): 29.70 inches Hg (1006.0 mb)
Winds: from the S (190 degrees) at 7 MPH (6 knots; 3.1 m/s)
Visibility: 6 or more miles (10+ km)
Ceiling: at least 12,000 feet AGL
Clouds: sky clear below 12,000 feet AGL
Weather: no significant weather observed at this time

METAR text: UTDK 171200Z 20003MPS 9999 NSC 35/01 Q1005 R01/09//70 RMK QFE697/0929
Conditions at: UTDK (KOLUB , TJ) observed 1200 UTC 17 September 2021
Temperature: 35.0°C (95°F)
Dewpoint: 1.0°C (34°F) [RH = 12%]
Pressure (altimeter): 29.68 inches Hg (1005.0 mb)
Winds: from the SSW (200 degrees) at 7 MPH (6 knots; 3.1 m/s)
Visibility: 6 or more miles (10+ km)
Ceiling: at least 12,000 feet AGL
Clouds: sky clear below 12,000 feet AGL
Weather: no significant weather observed at this time

METAR text: UTDK 171130Z 20003MPS 170V230 9999 NSC 35/M00 Q1005 R01/09//70 RMK QFE697/0929
Conditions at: UTDK (KOLUB , TJ) observed 1130 UTC 17 September 2021
Temperature: 35.0°C (95°F)
Dewpoint: 0.0°C (32°F) [RH = 11%]
Pressure (altimeter): 29.68 inches Hg (1005.0 mb)
Winds: from the SSW (200 degrees) at 7 MPH (6 knots; 3.1 m/s)
Visibility: 6 or more miles (10+ km)
Ceiling: at least 12,000 feet AGL
Clouds: sky clear below 12,000 feet AGL
Weather: no significant weather observed at this time

METAR text: UTDK 171100Z 19003MPS 160V230 9999 NSC 36/01 Q1006 R01/09//70 RMK QFE697/0930
Conditions at: UTDK (KOLUB , TJ) observed 1100 UTC 17 September 2021
Temperature: 36.0°C (97°F)
Dewpoint: 1.0°C (34°F) [RH = 11%]
Pressure (altimeter): 29.70 inches Hg (1006.0 mb)
Winds: from the S (190 degrees) at 7 MPH (6 knots; 3.1 m/s)
Visibility: 6 or more miles (10+ km)
Ceiling: at least 12,000 feet AGL
Clouds: sky clear below 12,000 feet AGL
Weather: no significant weather observed at this time

METAR text: UTDK 171030Z 19003MPS 160V220 9999 NSC 36/01 Q1006 R01/09//70 RMK QFE697/0930
Conditions at: UTDK (KOLUB , TJ) observed 1030 UTC 17 September 2021
Temperature: 36.0°C (97°F)
Dewpoint: 1.0°C (34°F) [RH = 11%]
Pressure (altimeter): 29.70 inches Hg (1006.0 mb)
Winds: from the S (190 degrees) at 7 MPH (6 knots; 3.1 m/s)
Visibility: 6 or more miles (10+ km)
Ceiling: at least 12,000 feet AGL
Clouds: sky clear below 12,000 feet AGL
Weather: no significant weather observed at this time

METAR text: UTDK 171000Z 19003MPS 170V230 9999 NSC 36/M01 Q1006 R01/09//70 RMK QFE698/0930
Conditions at: UTDK (KOLUB , TJ) observed 1000 UTC 17 September 2021
Temperature: 36.0°C (97°F)
Dewpoint: -1.0°C (30°F) [RH = 10%]
Pressure (altimeter): 29.70 inches Hg (1006.0 mb)
Winds: from the S (190 degrees) at 7 MPH (6 knots; 3.1 m/s)
Visibility: 6 or more miles (10+ km)
Ceiling: at least 12,000 feet AGL
Clouds: sky clear below 12,000 feet AGL
Weather: no significant weather observed at this time

METAR text: UTDK 170930Z 19003MPS 160V230 9999 NSC 35/03 Q1007 R01/09//70 RMK QFE698/0930
Conditions at: UTDK (KOLUB , TJ) observed 0930 UTC 17 September 2021
Temperature: 35.0°C (95°F)
Dewpoint: 3.0°C (37°F) [RH = 13%]
Pressure (altimeter): 29.73 inches Hg (1007.0 mb)
Winds: from the S (190 degrees) at 7 MPH (6 knots; 3.1 m/s)
Visibility: 6 or more miles (10+ km)
Ceiling: at least 12,000 feet AGL
Clouds: sky clear below 12,000 feet AGL
Weather: no significant weather observed at this time

METAR text: UTDK 170900Z 20003MPS 160V240 9999 NSC 35/02 Q1007 R01/09//70 RMK QFE698/0931
Conditions at: UTDK (KOLUB , TJ) observed 0900 UTC 17 September 2021
Temperature: 35.0°C (95°F)
Dewpoint: 2.0°C (36°F) [RH = 13%]
Pressure (altimeter): 29.73 inches Hg (1007.0 mb)
Winds: from the SSW (200 degrees) at 7 MPH (6 knots; 3.1 m/s)
Visibility: 6 or more miles (10+ km)
Ceiling: at least 12,000 feet AGL
Clouds: sky clear below 12,000 feet AGL
Weather: no significant weather observed at this time

METAR text: UTDK 170830Z 20003MPS 160V230 9999 NSC 34/01 Q1007 R01/09//70 RMK QFE698/0931
Conditions at: UTDK (KOLUB , TJ) observed 0830 UTC 17 September 2021
Temperature: 34.0°C (93°F)
Dewpoint: 1.0°C (34°F) [RH = 12%]
Pressure (altimeter): 29.73 inches Hg (1007.0 mb)
Winds: from the SSW (200 degrees) at 7 MPH (6 knots; 3.1 m/s)
Visibility: 6 or more miles (10+ km)
Ceiling: at least 12,000 feet AGL
Clouds: sky clear below 12,000 feet AGL
Weather: no significant weather observed at this time

METAR text: UTDK 170800Z 21003MPS 170V250 9999 NSC 34/02 Q1008 R01/09//70 RMK QFE699/0932
Conditions at: UTDK (KOLUB , TJ) observed 0800 UTC 17 September 2021
Temperature: 34.0°C (93°F)
Dewpoint: 2.0°C (36°F) [RH = 13%]
Pressure (altimeter): 29.76 inches Hg (1008.0 mb)
Winds: from the SSW (210 degrees) at 7 MPH (6 knots; 3.1 m/s)
Visibility: 6 or more miles (10+ km)
Ceiling: at least 12,000 feet AGL
Clouds: sky clear below 12,000 feet AGL
Weather: no significant weather observed at this time

METAR text: UTDK 170730Z 22003MPS 170V250 9999 NSC 33/01 Q1008 R01/09//70 RMK QFE699/0932
Conditions at: UTDK (KOLUB , TJ) observed 0730 UTC 17 September 2021
Temperature: 33.0°C (91°F)
Dewpoint: 1.0°C (34°F) [RH = 13%]
Pressure (altimeter): 29.76 inches Hg (1008.0 mb)
Winds: from the SW (220 degrees) at 7 MPH (6 knots; 3.1 m/s)
Visibility: 6 or more miles (10+ km)
Ceiling: at least 12,000 feet AGL
Clouds: sky clear below 12,000 feet AGL
Weather: no significant weather observed at this time

METAR text: UTDK 170700Z 23003MPS 9999 NSC 33/04 Q1009 R01/09//70 RMK QFE699/0932
Conditions at: UTDK (KOLUB , TJ) observed 0700 UTC 17 September 2021
Temperature: 33.0°C (91°F)
Dewpoint: 4.0°C (39°F) [RH = 16%]
Pressure (altimeter): 29.79 inches Hg (1009.0 mb)
Winds: from the SW (230 degrees) at 7 MPH (6 knots; 3.1 m/s)
Visibility: 6 or more miles (10+ km)
Ceiling: at least 12,000 feet AGL
Clouds: sky clear below 12,000 feet AGL
Weather: no significant weather observed at this time

METAR text: UTDK 170630Z 19003MPS 150V240 9999 NSC 33/M00 Q1009 R01/09//70 RMK QFE700/0933
Conditions at: UTDK (KOLUB , TJ) observed 0630 UTC 17 September 2021
Temperature: 33.0°C (91°F)
Dewpoint: 0.0°C (32°F) [RH = 12%]
Pressure (altimeter): 29.79 inches Hg (1009.0 mb)
Winds: from the S (190 degrees) at 7 MPH (6 knots; 3.1 m/s)
Visibility: 6 or more miles (10+ km)
Ceiling: at least 12,000 feet AGL
Clouds: sky clear below 12,000 feet AGL
Weather: no significant weather observed at this time

METAR text: UTDK 170600Z VRB02MPS 9999 NSC 31/M00 Q1010 R01/09//70 RMK QFE700/0933
Conditions at: UTDK (KOLUB , TJ) observed 0600 UTC 17 September 2021
Temperature: 31.0°C (88°F)
Dewpoint: 0.0°C (32°F) [RH = 14%]
Pressure (altimeter): 29.82 inches Hg (1010.0 mb)
Winds: variable direction winds at 5 MPH (4 knots; 2.1 m/s)
Visibility: 6 or more miles (10+ km)
Ceiling: at least 12,000 feet AGL
Clouds: sky clear below 12,000 feet AGL
Weather: no significant weather observed at this time

METAR text: UTDK 170530Z VRB02MPS 9999 31/01 Q1010 R01/09//70 RMK QFE700/0934
Conditions at: UTDK (KOLUB , TJ) observed 0530 UTC 17 September 2021
Temperature: 31.0°C (88°F)
Dewpoint: 1.0°C (34°F) [RH = 15%]
Pressure (altimeter): 29.82 inches Hg (1010.0 mb)
Winds: variable direction winds at 5 MPH (4 knots; 2.1 m/s)
Visibility: 6 or more miles (10+ km)
Ceiling: unknown
Clouds: missing
Weather: no significant weather observed at this time

METAR text: UTDK 170500Z VRB02MPS 9999 NSC 30/01 Q1010 R01/09//70 RMK QFE700/0934
Conditions at: UTDK (KOLUB , TJ) observed 0500 UTC 17 September 2021
Temperature: 30.0°C (86°F)
Dewpoint: 1.0°C (34°F) [RH = 15%]
Pressure (altimeter): 29.82 inches Hg (1010.0 mb)
Winds: variable direction winds at 5 MPH (4 knots; 2.1 m/s)
Visibility: 6 or more miles (10+ km)
Ceiling: at least 12,000 feet AGL
Clouds: sky clear below 12,000 feet AGL
Weather: no significant weather observed at this time

METAR text: UTDK 170430Z VRB02MPS 9999 NSC 28/04 Q1010 R01/09//70 RMK QFE700/0934
Conditions at: UTDK (KOLUB , TJ) observed 0430 UTC 17 September 2021
Temperature: 28.0°C (82°F)
Dewpoint: 4.0°C (39°F) [RH = 22%]
Pressure (altimeter): 29.82 inches Hg (1010.0 mb)
Winds: variable direction winds at 5 MPH (4 knots; 2.1 m/s)
Visibility: 6 or more miles (10+ km)
Ceiling: at least 12,000 feet AGL
Clouds: sky clear below 12,000 feet AGL
Weather: no significant weather observed at this time

METAR text: UTDK 170400Z VRB01MPS 9999 NSC 27/02 Q1010 R01/09//70 RMK QFE700/0934
Conditions at: UTDK (KOLUB , TJ) observed 0400 UTC 17 September 2021
Temperature: 27.0°C (81°F)
Dewpoint: 2.0°C (36°F) [RH = 20%]
Pressure (altimeter): 29.82 inches Hg (1010.0 mb)
Winds: variable direction winds at 2 MPH (2 knots; 1.0 m/s)
Visibility: 6 or more miles (10+ km)
Ceiling: at least 12,000 feet AGL
Clouds: sky clear below 12,000 feet AGL
Weather: no significant weather observed at this time

METAR text: UTDK 170330Z 06002MPS 9999 NSC 25/02 Q1010 R01/09//70 RMK QFE700/0934
Conditions at: UTDK (KOLUB , TJ) observed 0330 UTC 17 September 2021
Temperature: 25.0°C (77°F)
Dewpoint: 2.0°C (36°F) [RH = 22%]
Pressure (altimeter): 29.82 inches Hg (1010.0 mb)
Winds: from the ENE (60 degrees) at 5 MPH (4 knots; 2.1 m/s)
Visibility: 6 or more miles (10+ km)
Ceiling: at least 12,000 feet AGL
Clouds: sky clear below 12,000 feet AGL
Weather: no significant weather observed at this time

METAR text: UTDK 170300Z 04003MPS 9999 NSC 24/04 Q1010 R01/09//70 RMK QFE700/0934
Conditions at: UTDK (KOLUB , TJ) observed 0300 UTC 17 September 2021
Temperature: 24.0°C (75°F)
Dewpoint: 4.0°C (39°F) [RH = 27%]
Pressure (altimeter): 29.82 inches Hg (1010.0 mb)
Winds: from the NE (40 degrees) at 7 MPH (6 knots; 3.1 m/s)
Visibility: 6 or more miles (10+ km)
Ceiling: at least 12,000 feet AGL
Clouds: sky clear below 12,000 feet AGL
Weather: no significant weather observed at this time

METAR text: UTDK 170230Z 03004MPS 9999 NSC 22/02 Q1010 R01/09//70 RMK QFE700/0934
Conditions at: UTDK (KOLUB , TJ) observed 0230 UTC 17 September 2021
Temperature: 22.0°C (72°F)
Dewpoint: 2.0°C (36°F) [RH = 27%]
Pressure (altimeter): 29.82 inches Hg (1010.0 mb)
Winds: from the NNE (30 degrees) at 9 MPH (8 knots; 4.1 m/s)
Visibility: 6 or more miles (10+ km)
Ceiling: at least 12,000 feet AGL
Clouds: sky clear below 12,000 feet AGL
Weather: no significant weather observed at this time

METAR text: UTDK 170200Z 03004MPS 9999 NSC 20/01 Q1010 R01/09//70 RMK QFE700/0934
Conditions at: UTDK (KOLUB , TJ) observed 0200 UTC 17 September 2021
Temperature: 20.0°C (68°F)
Dewpoint: 1.0°C (34°F) [RH = 28%]
Pressure (altimeter): 29.82 inches Hg (1010.0 mb)
Winds: from the NNE (30 degrees) at 9 MPH (8 knots; 4.1 m/s)
Visibility: 6 or more miles (10+ km)
Ceiling: at least 12,000 feet AGL
Clouds: sky clear below 12,000 feet AGL
Weather: no significant weather observed at this time

METAR text: UTDK 170130Z 03004MPS 9999 NSC 21/M00 Q1010 R01/09//70 RMK QFE700/0934
Conditions at: UTDK (KOLUB , TJ) observed 0130 UTC 17 September 2021
Temperature: 21.0°C (70°F)
Dewpoint: 0.0°C (32°F) [RH = 25%]
Pressure (altimeter): 29.82 inches Hg (1010.0 mb)
Winds: from the NNE (30 degrees) at 9 MPH (8 knots; 4.1 m/s)
Visibility: 6 or more miles (10+ km)
Ceiling: at least 12,000 feet AGL
Clouds: sky clear below 12,000 feet AGL
Weather: no significant weather observed at this time

METAR text: UTDK 170100Z 02006MPS 9999 NSC 21/M01 Q1010 R01/09//70 RMK QFE700/0934
Conditions at: UTDK (KOLUB , TJ) observed 0100 UTC 17 September 2021
Temperature: 21.0°C (70°F)
Dewpoint: -1.0°C (30°F) [RH = 23%]
Pressure (altimeter): 29.82 inches Hg (1010.0 mb)
Winds: from the NNE (20 degrees) at 14 MPH (12 knots; 6.2 m/s)
Visibility: 6 or more miles (10+ km)
Ceiling: at least 12,000 feet AGL
Clouds: sky clear below 12,000 feet AGL
Weather: no significant weather observed at this time

METAR text: UTDK 170030Z 02006MPS 9999 NSC 21/M00 Q1010 R01/09//70 RMK QFE700/0933
Conditions at: UTDK (KOLUB , TJ) observed 0030 UTC 17 September 2021
Temperature: 21.0°C (70°F)
Dewpoint: 0.0°C (32°F) [RH = 25%]
Pressure (altimeter): 29.82 inches Hg (1010.0 mb)
Winds: from the NNE (20 degrees) at 14 MPH (12 knots; 6.2 m/s)
Visibility: 6 or more miles (10+ km)
Ceiling: at least 12,000 feet AGL
Clouds: sky clear below 12,000 feet AGL
Weather: no significant weather observed at this time

METAR text: UTDK 170000Z 02006MPS 9999 NSC 21/M01 Q1010 R01/09//70 RMK QFE700/0933
Conditions at: UTDK (KOLUB , TJ) observed 0000 UTC 17 September 2021
Temperature: 21.0°C (70°F)
Dewpoint: -1.0°C (30°F) [RH = 23%]
Pressure (altimeter): 29.82 inches Hg (1010.0 mb)
Winds: from the NNE (20 degrees) at 14 MPH (12 knots; 6.2 m/s)
Visibility: 6 or more miles (10+ km)
Ceiling: at least 12,000 feet AGL
Clouds: sky clear below 12,000 feet AGL
Weather: no significant weather observed at this time

METAR text: UTDK 162330Z 02007MPS 9999 NSC 21/M00 Q1010 R01/09//70 RMK QFE700/0933
Conditions at: UTDK (KOLUB , TJ) observed 2330 UTC 16 September 2021
Temperature: 21.0°C (70°F)
Dewpoint: 0.0°C (32°F) [RH = 25%]
Pressure (altimeter): 29.82 inches Hg (1010.0 mb)
Winds: from the NNE (20 degrees) at 16 MPH (14 knots; 7.2 m/s)
Visibility: 6 or more miles (10+ km)
Ceiling: at least 12,000 feet AGL
Clouds: sky clear below 12,000 feet AGL
Weather: no significant weather observed at this time

METAR text: UTDK 162300Z 02006MPS 9999 NSC 21/00 Q1010 R01/09//70 RMK QFE700/0933
Conditions at: UTDK (KOLUB , TJ) observed 2300 UTC 16 September 2021
Temperature: 21.0°C (70°F)
Dewpoint: 0.0°C (32°F) [RH = 25%]
Pressure (altimeter): 29.82 inches Hg (1010.0 mb)
Winds: from the NNE (20 degrees) at 14 MPH (12 knots; 6.2 m/s)
Visibility: 6 or more miles (10+ km)
Ceiling: at least 12,000 feet AGL
Clouds: sky clear below 12,000 feet AGL
Weather: no significant weather observed at this time

METAR text: UTDK 162230Z 02007MPS 9999 NSC 22/M01 Q1010 R01/09//70 RMK QFE700/0933
Conditions at: UTDK (KOLUB , TJ) observed 2230 UTC 16 September 2021
Temperature: 22.0°C (72°F)
Dewpoint: -1.0°C (30°F) [RH = 21%]
Pressure (altimeter): 29.82 inches Hg (1010.0 mb)
Winds: from the NNE (20 degrees) at 16 MPH (14 knots; 7.2 m/s)
Visibility: 6 or more miles (10+ km)
Ceiling: at least 12,000 feet AGL
Clouds: sky clear below 12,000 feet AGL
Weather: no significant weather observed at this time

METAR text: UTDK 162200Z 01007MPS 9999 NSC 22/00 Q1010 R01/09//70 RMK QFE700/0933
Conditions at: UTDK (KOLUB , TJ) observed 2200 UTC 16 September 2021
Temperature: 22.0°C (72°F)
Dewpoint: 0.0°C (32°F) [RH = 23%]
Pressure (altimeter): 29.82 inches Hg (1010.0 mb)
Winds: from the N (10 degrees) at 16 MPH (14 knots; 7.2 m/s)
Visibility: 6 or more miles (10+ km)
Ceiling: at least 12,000 feet AGL
Clouds: sky clear below 12,000 feet AGL
Weather: no significant weather observed at this time

METAR text: UTDK 162130Z 02007MPS 9999 NSC 22/M00 Q1010 R01/09//70 RMK QFE700/0934
Conditions at: UTDK (KOLUB , TJ) observed 2130 UTC 16 September 2021
Temperature: 22.0°C (72°F)
Dewpoint: 0.0°C (32°F) [RH = 23%]
Pressure (altimeter): 29.82 inches Hg (1010.0 mb)
Winds: from the NNE (20 degrees) at 16 MPH (14 knots; 7.2 m/s)
Visibility: 6 or more miles (10+ km)
Ceiling: at least 12,000 feet AGL
Clouds: sky clear below 12,000 feet AGL
Weather: no significant weather observed at this time

METAR text: UTDK 162100Z 01007MPS 9999 NSC 22/00 Q1010 R01/09//70 RMK QFE700/0934
Conditions at: UTDK (KOLUB , TJ) observed 2100 UTC 16 September 2021
Temperature: 22.0°C (72°F)
Dewpoint: 0.0°C (32°F) [RH = 23%]
Pressure (altimeter): 29.82 inches Hg (1010.0 mb)
Winds: from the N (10 degrees) at 16 MPH (14 knots; 7.2 m/s)
Visibility: 6 or more miles (10+ km)
Ceiling: at least 12,000 feet AGL
Clouds: sky clear below 12,000 feet AGL
Weather: no significant weather observed at this time

METAR text: UTDK 162030Z 01006MPS 9999 NSC 22/00 Q1010 R01/09//70 RMK QFE700/0934
Conditions at: UTDK (KOLUB , TJ) observed 2030 UTC 16 September 2021
Temperature: 22.0°C (72°F)
Dewpoint: 0.0°C (32°F) [RH = 23%]
Pressure (altimeter): 29.82 inches Hg (1010.0 mb)
Winds: from the N (10 degrees) at 14 MPH (12 knots; 6.2 m/s)
Visibility: 6 or more miles (10+ km)
Ceiling: at least 12,000 feet AGL
Clouds: sky clear below 12,000 feet AGL
Weather: no significant weather observed at this time

Forecast for: UTDK (KOLUB , TJ)
Text: TAF UTDK 180600Z 1807/1816 VRB02MPS 9999 NSC
Forecast period: 0700 to 1600 UTC 18 September 2021
Forecast type: FROM: standard forecast or significant change
Winds: variable direction winds at 5 MPH (4 knots; 2.1 m/s)
Visibility: 6 or more miles (10+ km)
Ceiling: unknown
Clouds: missing
Weather: no significant weather forecast for this period
Text: TEMPO 1807/1813 21005MPS
Forecast period: 0700 to 1300 UTC 18 September 2021
Forecast type: TEMPORARY: The following changes expected for less than half the time period
Winds: from the SSW (210 degrees) at 12 MPH (10 knots; 5.1 m/s)
Visibility: missing
Ceiling: unknown
Clouds: missing
Weather: no significant weather forecast for this period